Time;durP1;ratioP1;P1;durP2;ratioP2;P2;SDS_P1;SDS_P2;PMS_P1;PMS_P2;Temp;Humidity;BMP_temperature;BMP_pressure;BME280_temperature;BME280_humidity;BME280_pressure;Samples;Min_cycle;Max_cycle;Signal;HPM_P1;HPM_P2
2023/10/05 00:01:27;;;;;;;6.60;1.90;;;;;;;13.20;100.00;102067.59;4965348;28;20451;-75
2023/10/05 00:03:53;;;;;;;6.90;2.00;;;;;;;12.70;100.00;101985.72;4978204;28;20923;-75
2023/10/05 00:06:23;;;;;;;7.40;1.70;;;;;;;13.05;100.00;102029.06;4962379;28;20442;-75
2023/10/05 00:08:50;;;;;;;12.07;2.50;;;;;;;13.28;100.00;102059.47;4963788;28;20202;-75
2023/10/05 00:11:31;;;;;;;9.03;2.00;;;;;;;13.35;100.00;102086.50;4978752;28;20813;-75
2023/10/05 00:13:59;;;;;;;6.67;1.73;;;;;;;12.62;100.00;101972.31;4963393;28;20539;-75
2023/10/05 00:16:36;;;;;;;8.33;1.60;;;;;;;12.80;100.00;101996.19;4963849;28;21188;-75
2023/10/05 00:19:12;;;;;;;6.93;1.80;;;;;;;12.73;100.00;101971.88;4962692;28;20448;-75
2023/10/05 00:21:52;;;;;;;5.10;1.53;;;;;;;13.41;100.00;102087.59;4976311;28;20441;-75
2023/10/05 00:27:15;;;;;;;5.57;1.90;;;;;;;12.89;100.00;101993.22;4966696;28;20789;-75
2023/10/05 00:29:41;;;;;;;7.30;1.93;;;;;;;13.45;100.00;102089.75;4965316;28;20445;-75
2023/10/05 00:32:22;;;;;;;6.43;2.10;;;;;;;12.78;100.00;101966.75;4963344;28;20532;-75
2023/10/05 00:34:51;;;;;;;10.07;2.20;;;;;;;13.28;100.00;102089.09;4977012;28;20444;-75
2023/10/05 00:37:17;;;;;;;5.00;1.47;;;;;;;13.38;100.00;102064.56;4964778;28;20473;-75
2023/10/05 00:39:47;;;;;;;6.93;1.90;;;;;;;13.49;100.00;102098.28;4960278;28;20617;-75
2023/10/05 00:42:14;;;;;;;9.93;2.07;;;;;;;13.19;100.00;102062.41;4963595;28;20461;-75
2023/10/05 00:44:41;;;;;;;8.07;2.10;;;;;;;13.06;100.00;102038.81;4962279;28;20456;-75
2023/10/05 00:47:07;;;;;;;8.27;2.00;;;;;;;13.45;100.00;102099.69;4960621;28;20532;-75
2023/10/05 00:54:40;;;;;;;10.80;1.87;;;;;;;13.25;100.00;102105.66;4961491;28;20449;-75
2023/10/05 00:57:09;;;;;;;6.23;2.30;;;;;;;13.20;100.00;102118.81;4960082;28;20478;-75
2023/10/05 00:59:38;;;;;;;6.80;1.53;;;;;;;12.50;100.00;102027.59;4978072;28;20481;-75
2023/10/05 01:02:14;;;;;;;10.70;2.20;;;;;;;12.45;100.00;102036.22;4966146;28;20465;-74
2023/10/05 01:04:53;;;;;;;5.97;2.23;;;;;;;12.73;100.00;102093.03;4965608;28;20870;-75
2023/10/05 01:14:51;;;;;;;6.23;2.00;;;;;;;12.61;100.00;102064.84;4967712;28;20794;-75
2023/10/05 01:17:23;;;;;;;6.47;1.83;;;;;;;12.50;100.00;102030.28;4966208;28;20477;-75
2023/10/05 01:19:56;;;;;;;8.53;2.33;;;;;;;12.96;100.00;102105.56;4966399;28;20438;-75
2023/10/05 01:22:22;;;;;;;8.30;2.10;;;;;;;13.10;100.00;102127.16;4962999;28;20464;-75
2023/10/05 01:24:48;;;;;;;6.03;1.80;;;;;;;12.56;100.00;102067.25;4967284;28;22477;-75
2023/10/05 01:27:14;;;;;;;6.07;1.60;;;;;;;12.58;100.00;102065.22;4978324;28;20437;-75
2023/10/05 01:29:40;;;;;;;5.97;1.63;;;;;;;12.31;100.00;102015.50;4965634;28;20967;-75
2023/10/05 01:32:07;;;;;;;7.50;1.90;;;;;;;12.68;100.00;102075.75;4964663;28;20737;-75
2023/10/05 01:34:32;;;;;;;8.40;1.90;;;;;;;13.01;100.00;102147.09;4965899;28;20205;-75
2023/10/05 01:36:58;;;;;;;9.13;2.33;;;;;;;12.66;100.00;102083.97;4963553;28;20473;-75
2023/10/05 01:39:25;;;;;;;13.80;2.10;;;;;;;13.14;100.00;102173.41;4965943;28;20562;-75
2023/10/05 01:41:51;;;;;;;9.50;2.50;;;;;;;12.50;100.00;102086.81;4963109;28;20343;-75
2023/10/05 01:44:16;;;;;;;9.13;2.13;;;;;;;12.38;100.00;102054.97;4965301;28;20533;-75
2023/10/05 01:46:42;;;;;;;6.30;2.47;;;;;;;13.14;100.00;102177.97;4965123;28;20226;-75
2023/10/05 01:49:08;;;;;;;9.30;2.20;;;;;;;12.88;100.00;102125.34;4962374;28;20584;-75
2023/10/05 01:51:34;;;;;;;7.67;2.10;;;;;;;12.53;100.00;102110.69;4965025;28;20569;-75
2023/10/05 01:54:11;;;;;;;6.00;1.97;;;;;;;13.22;100.00;102194.91;4961353;28;20442;-75
2023/10/05 01:56:37;;;;;;;7.30;1.80;;;;;;;12.62;100.00;102105.06;4965042;28;20496;-74
2023/10/05 01:59:06;;;;;;;5.20;1.80;;;;;;;12.77;100.00;102118.53;4962836;28;20478;-75
2023/10/05 02:01:36;;;;;;;5.50;1.70;;;;;;;13.42;100.00;102208.69;4965785;28;20944;-75
2023/10/05 02:04:02;;;;;;;8.20;2.13;;;;;;;13.30;100.00;102202.06;4965790;28;20536;-76
2023/10/05 02:06:28;;;;;;;16.53;2.23;;;;;;;12.89;100.00;102111.69;4963266;28;20805;-75
2023/10/05 02:08:54;;;;;;;7.70;2.10;;;;;;;12.83;100.00;102098.13;4963874;28;20253;-75
2023/10/05 02:11:29;;;;;;;9.13;2.20;;;;;;;13.53;100.00;102189.38;4961962;28;20442;-75
2023/10/05 02:14:03;;;;;;;7.47;2.57;;;;;;;13.09;100.00;102120.09;4964468;28;20441;-75
2023/10/05 02:16:32;;;;;;;7.73;2.97;;;;;;;13.06;100.00;102084.59;4963051;28;20437;-75
2023/10/05 02:19:02;;;;;;;12.60;2.50;;;;;;;13.05;100.00;102086.47;4963429;28;20457;-75
2023/10/05 02:21:30;;;;;;;7.67;2.00;;;;;;;13.21;100.00;102081.91;4980505;28;20929;-75
2023/10/05 02:24:10;;;;;;;7.10;1.80;;;;;;;13.83;100.00;102180.44;4961710;28;20442;-75
2023/10/05 02:26:36;;;;;;;10.33;2.23;;;;;;;13.54;100.00;102110.19;4964895;28;20464;-75
2023/10/05 02:29:17;;;;;;;7.73;2.20;;;;;;;13.69;100.00;102137.13;4964081;28;20488;-75
2023/10/05 02:37:19;;;;;;;6.60;2.17;;;;;;;13.85;100.00;102124.44;4966542;28;20920;-75
2023/10/05 02:39:45;;;;;;;7.33;2.20;;;;;;;13.07;100.00;102006.28;4965493;28;20527;-74
2023/10/05 02:42:15;;;;;;;7.87;2.00;;;;;;;13.16;100.00;101998.94;4966143;28;20996;-75
2023/10/05 02:44:44;;;;;;;9.63;2.20;;;;;;;13.92;100.00;102087.63;4962222;28;20194;-75
2023/10/05 02:47:12;;;;;;;13.40;2.27;;;;;;;13.84;100.00;102085.03;4963685;28;20995;-74
2023/10/05 02:49:43;;;;;;;11.90;3.50;;;;;;;13.39;100.00;101989.94;4964085;28;20441;-74
2023/10/05 02:52:12;;;;;;;8.93;2.10;;;;;;;13.86;100.00;102053.31;4962618;28;20473;-74
2023/10/05 02:54:41;;;;;;;7.03;2.23;;;;;;;13.46;100.00;101999.78;4963082;28;20449;-74
2023/10/05 02:57:08;;;;;;;6.07;2.10;;;;;;;13.97;100.00;102060.88;4963224;28;20512;-75
2023/10/05 02:59:34;;;;;;;7.03;1.97;;;;;;;13.85;100.00;102040.84;4963840;28;20442;-74
2023/10/05 03:02:06;;;;;;;9.10;2.10;;;;;;;13.55;100.00;101971.69;4962486;28;20464;-74
2023/10/05 03:05:17;;;;;;;10.93;3.07;;;;;;;13.21;100.00;101945.34;4979036;28;20528;-75
2023/10/05 03:07:18;;;;;;;9.63;2.67;;;;;;;13.93;100.00;102030.78;4958432;28;20944;-75
2023/10/05 03:09:46;;;;;;;8.53;1.80;;;;;;;13.22;100.00;101925.47;4963911;28;20450;-74
2023/10/05 03:12:12;;;;;;;7.33;2.10;;;;;;;13.31;100.00;101921.66;4962642;28;20473;-74
2023/10/05 03:14:43;;;;;;;9.97;2.60;;;;;;;13.86;100.00;102031.75;4962911;28;20533;-75
2023/10/05 03:17:12;;;;;;;9.90;1.87;;;;;;;13.20;100.00;101935.59;4961533;28;20509;-75
2023/10/05 03:19:39;;;;;;;7.37;2.60;;;;;;;13.70;100.00;101995.88;4980269;28;21015;-74
2023/10/05 03:22:07;;;;;;;10.50;2.07;;;;;;;13.97;100.00;102028.50;4961097;28;20484;-75
2023/10/05 03:24:35;;;;;;;5.63;1.63;;;;;;;13.36;100.00;101947.19;4962383;28;20449;-75
2023/10/05 03:27:04;;;;;;;13.13;2.57;;;;;;;13.70;100.00;101992.34;4964643;28;20434;-75
2023/10/05 03:29:30;;;;;;;15.93;2.90;;;;;;;13.68;100.00;101992.56;4964311;28;21019;-75
2023/10/05 03:34:37;;;;;;;9.07;2.30;;;;;;;13.89;100.00;102017.88;4960859;28;20948;-75
2023/10/05 03:37:07;;;;;;;14.27;2.47;;;;;;;13.90;100.00;102020.38;4966082;28;20577;-75
2023/10/05 03:39:37;;;;;;;11.83;2.50;;;;;;;13.25;100.00;101932.31;4979349;28;20543;-72
2023/10/05 03:42:03;;;;;;;8.83;2.43;;;;;;;13.85;100.00;102009.31;4964153;28;20523;-75
2023/10/05 03:44:28;;;;;;;8.83;2.50;;;;;;;13.08;100.00;101916.41;4964831;28;20445;-75
2023/10/05 03:46:54;;;;;;;12.47;2.57;;;;;;;13.55;100.00;102003.19;4964053;28;20456;-75
2023/10/05 03:49:21;;;;;;;9.30;2.00;;;;;;;13.67;100.00;102028.63;4965649;28;20779;-75
2023/10/05 03:51:50;;;;;;;10.07;2.50;;;;;;;13.40;100.00;101991.63;4962384;28;20285;-75
2023/10/05 03:54:24;;;;;;;9.20;2.67;;;;;;;12.99;100.00;101932.84;4963269;28;20451;-75
2023/10/05 03:56:50;;;;;;;11.17;3.03;;;;;;;13.64;100.00;102025.47;4978986;28;20477;-75
2023/10/05 03:59:19;;;;;;;10.60;2.60;;;;;;;13.62;100.00;102008.66;4962286;28;20453;-75
2023/10/05 04:01:48;;;;;;;7.90;2.07;;;;;;;13.77;100.00;102041.81;4963953;28;20902;-75
2023/10/05 04:04:16;;;;;;;8.03;2.40;;;;;;;13.66;100.00;102013.47;4961890;28;20438;-75
2023/10/05 04:06:42;;;;;;;10.07;2.37;;;;;;;13.30;100.00;101946.09;4971985;28;20976;-75
2023/10/05 04:09:15;;;;;;;8.87;2.93;;;;;;;13.30;100.00;101975.72;4977608;28;20434;-75
2023/10/05 04:11:42;;;;;;;12.13;2.70;;;;;;;14.04;100.00;102060.97;4961291;28;20265;-75
2023/10/05 04:14:08;;;;;;;10.57;2.77;;;;;;;13.34;100.00;101942.84;4978482;28;20495;-75
2023/10/05 04:16:34;;;;;;;11.83;2.30;;;;;;;13.46;100.00;101955.81;4959903;28;20928;-75
2023/10/05 04:19:04;;;;;;;8.40;2.80;;;;;;;14.03;100.00;102046.66;4965749;28;20201;-75
2023/10/05 04:21:30;;;;;;;9.63;2.60;;;;;;;13.81;100.00;102034.19;4962828;28;20966;-75
2023/10/05 04:23:59;;;;;;;13.27;3.20;;;;;;;13.63;100.00;101986.91;4978503;28;20534;-75
2023/10/05 04:26:32;;;;;;;14.57;3.50;;;;;;;14.02;100.00;102042.28;4965764;28;20520;-75
2023/10/05 04:29:03;;;;;;;8.40;2.37;;;;;;;14.02;100.00;102053.88;4960727;28;20495;-75
2023/10/05 04:31:29;;;;;;;11.07;2.33;;;;;;;13.31;100.00;101940.53;4963173;28;20506;-74
2023/10/05 04:33:55;;;;;;;11.20;2.40;;;;;;;13.83;100.00;102019.47;4964978;28;20492;-75
2023/10/05 04:36:25;;;;;;;10.27;2.30;;;;;;;14.03;100.00;102065.53;4964000;28;20193;-75
2023/10/05 04:38:54;;;;;;;8.00;2.23;;;;;;;13.37;100.00;101952.41;4965755;28;20484;-75
2023/10/05 04:41:24;;;;;;;10.10;2.80;;;;;;;13.87;100.00;102046.91;4966081;28;20434;-75
2023/10/05 04:43:50;;;;;;;10.53;2.50;;;;;;;13.81;100.00;102037.69;4963360;28;20445;-75
2023/10/05 04:46:18;;;;;;;10.50;2.47;;;;;;;13.99;100.00;102059.66;4982500;28;20500;-75
2023/10/05 04:48:55;;;;;;;10.40;2.93;;;;;;;12.99;100.00;101901.38;4964881;28;20726;-75
2023/10/05 04:51:31;;;;;;;7.10;2.67;;;;;;;13.88;100.00;102040.47;4967138;28;20472;-75
2023/10/05 04:53:59;;;;;;;11.00;2.70;;;;;;;13.93;100.00;102062.31;4981077;28;20433;-75
2023/10/05 05:07:01;;;;;;;9.87;2.43;;;;;;;13.86;100.00;102059.56;4966472;28;20437;-75
2023/10/05 05:09:34;;;;;;;10.10;2.60;;;;;;;13.79;100.00;102075.63;4962043;28;20874;-75
2023/10/05 05:12:08;;;;;;;9.13;2.07;;;;;;;13.31;100.00;102028.63;4982361;28;20524;-75
2023/10/05 05:14:41;;;;;;;10.20;2.40;;;;;;;13.71;100.00;102128.84;4964778;28;20436;-75
2023/10/05 05:17:10;;;;;;;8.77;2.57;;;;;;;13.67;100.00;102131.09;4963817;28;20984;-75
2023/10/05 05:19:39;;;;;;;12.67;2.83;;;;;;;13.91;100.00;102142.56;4980451;28;20449;-75
2023/10/05 05:22:05;;;;;;;15.07;2.70;;;;;;;13.87;100.00;102155.59;4982085;28;20544;-75
2023/10/05 05:24:31;;;;;;;8.37;2.30;;;;;;;13.10;100.00;102054.44;4984037;28;20445;-74
2023/10/05 05:27:04;;;;;;;10.70;2.40;;;;;;;13.34;100.00;102109.91;4973949;28;20485;-74
2023/10/05 05:29:33;;;;;;;7.93;2.13;;;;;;;13.26;100.00;102082.22;4961505;28;20457;-75
2023/10/05 05:32:07;;;;;;;14.20;3.20;;;;;;;13.57;100.00;102134.06;4964204;28;20552;-74
2023/10/05 05:34:33;;;;;;;16.67;2.73;;;;;;;13.92;100.00;102185.56;4963833;28;20473;-75
2023/10/05 05:36:58;;;;;;;9.00;2.40;;;;;;;13.78;100.00;102124.38;4979126;28;20458;-73
2023/10/05 05:39:25;;;;;;;9.13;2.47;;;;;;;13.79;100.00;102164.63;4966492;28;20184;-73
2023/10/05 05:41:59;;;;;;;11.10;2.50;;;;;;;13.66;100.00;102123.19;4966846;28;20586;-73
2023/10/05 05:44:26;;;;;;;13.17;2.90;;;;;;;13.11;100.00;102061.47;4965679;28;20813;-73
2023/10/05 05:46:55;;;;;;;9.87;2.20;;;;;;;13.92;100.00;102179.31;4962004;28;20517;-73
2023/10/05 05:49:21;;;;;;;10.67;2.53;;;;;;;13.39;100.00;102114.72;4978657;28;21034;-73
2023/10/05 05:51:47;;;;;;;10.50;2.93;;;;;;;14.00;100.00;102195.38;4966420;28;20489;-73
2023/10/05 05:54:12;;;;;;;10.10;2.37;;;;;;;13.38;100.00;102090.69;4962092;28;20209;-73
2023/10/05 05:56:38;;;;;;;14.53;2.90;;;;;;;13.52;100.00;102106.00;4966147;28;20186;-73
2023/10/05 05:59:03;;;;;;;9.83;2.70;;;;;;;14.03;100.00;102176.16;4964781;28;20224;-73
2023/10/05 06:01:29;;;;;;;11.33;2.80;;;;;;;14.02;100.00;102171.75;4964789;28;20182;-74
2023/10/05 06:03:54;;;;;;;12.53;2.63;;;;;;;14.15;100.00;102212.41;4962769;28;20666;-73
2023/10/05 06:06:20;;;;;;;21.53;3.70;;;;;;;13.91;100.00;102145.25;4965289;28;20190;-73
2023/10/05 06:08:46;;;;;;;10.33;2.83;;;;;;;13.56;100.00;102105.44;4977811;28;20708;-73
2023/10/05 06:11:14;;;;;;;11.60;2.43;;;;;;;14.34;100.00;102213.66;4977401;28;20437;-73
2023/10/05 06:13:42;;;;;;;14.73;2.93;;;;;;;13.67;100.00;102124.84;4964548;28;20462;-73
2023/10/05 06:16:09;;;;;;;11.40;2.97;;;;;;;14.28;100.00;102203.63;4961114;28;20435;-73
2023/10/05 06:18:36;;;;;;;9.83;2.60;;;;;;;14.19;100.00;102205.59;4962894;28;20513;-73
2023/10/05 06:21:02;;;;;;;12.77;2.67;;;;;;;14.39;100.00;102211.22;4962914;28;20441;-73
2023/10/05 06:23:28;;;;;;;9.23;2.50;;;;;;;14.36;100.00;102213.47;4963008;28;20459;-73
2023/10/05 06:25:53;;;;;;;12.30;3.13;;;;;;;13.94;100.00;102152.97;4965975;28;20440;-73
2023/10/05 06:28:19;;;;;;;11.40;2.77;;;;;;;14.37;100.00;102209.72;4965053;28;20648;-74
2023/10/05 06:30:44;;;;;;;11.63;2.83;;;;;;;13.77;100.00;102136.19;4965386;28;20252;-73
2023/10/05 06:33:10;;;;;;;7.90;2.60;;;;;;;13.91;100.00;102174.94;4964890;28;20209;-73
2023/10/05 06:35:36;;;;;;;13.23;3.40;;;;;;;13.52;100.00;102109.53;4960223;28;20194;-73
2023/10/05 06:38:02;;;;;;;12.73;2.57;;;;;;;14.09;100.00;102204.19;4981046;28;20210;-73
2023/10/05 06:40:29;;;;;;;10.77;3.20;;;;;;;14.29;100.00;102256.59;4962286;28;20970;-74
2023/10/05 06:42:57;;;;;;;10.73;2.90;;;;;;;14.33;100.00;102265.97;4961235;28;20480;-73
2023/10/05 06:45:23;;;;;;;11.70;2.70;;;;;;;14.32;100.00;102283.19;4963888;28;20433;-74
2023/10/05 06:47:49;;;;;;;11.50;3.10;;;;;;;14.34;100.00;102293.78;4961971;28;20433;-73
2023/10/05 06:50:15;;;;;;;10.40;2.23;;;;;;;14.17;100.00;102258.06;4965244;28;20464;-73
2023/10/05 06:52:46;;;;;;;8.87;2.47;;;;;;;14.27;100.00;102285.63;4964832;28;20482;-73
2023/10/05 06:55:13;;;;;;;11.80;2.63;;;;;;;13.56;100.00;102180.91;4963529;28;20598;-73
2023/10/05 06:57:40;;;;;;;10.20;2.77;;;;;;;13.67;100.00;102197.66;4965802;28;20986;-73
2023/10/05 07:00:16;;;;;;;14.73;2.80;;;;;;;14.27;100.00;102292.88;4962929;28;20442;-73
2023/10/05 07:02:43;;;;;;;10.80;2.33;;;;;;;13.51;100.00;102195.97;4961996;28;20461;-73
2023/10/05 07:05:09;;;;;;;8.77;2.37;;;;;;;13.93;100.00;102262.75;4966084;28;20552;-73
2023/10/05 07:07:35;;;;;;;13.97;3.20;;;;;;;13.62;100.00;102216.25;4964088;28;21832;-73
2023/10/05 07:10:06;;;;;;;13.20;3.23;;;;;;;13.84;100.00;102244.16;4963800;28;20438;-73
2023/10/05 07:12:32;;;;;;;12.93;3.03;;;;;;;13.67;100.00;102230.00;4978634;28;20547;-73
2023/10/05 07:14:58;;;;;;;9.47;2.70;;;;;;;13.47;100.00;102221.63;4962493;28;20433;-73
2023/10/05 07:17:26;;;;;;;11.00;2.30;;;;;;;13.78;100.00;102251.13;4963125;28;20597;-73
2023/10/05 07:19:52;;;;;;;9.30;2.20;;;;;;;13.77;100.00;102236.81;4961522;28;21533;-73
2023/10/05 07:22:19;;;;;;;13.50;3.10;;;;;;;14.43;100.00;102346.66;4963505;28;20465;-73
2023/10/05 07:24:44;;;;;;;14.20;3.20;;;;;;;14.42;100.00;102347.69;4958223;28;20484;-73
2023/10/05 07:27:09;;;;;;;10.13;2.73;;;;;;;13.90;100.00;102306.28;4964152;28;20437;-73
2023/10/05 07:29:36;;;;;;;8.37;2.83;;;;;;;14.38;100.00;102365.28;4964337;28;20575;-73
2023/10/05 07:32:05;;;;;;;10.43;3.07;;;;;;;13.61;100.00;102258.53;4964921;28;20198;-73
2023/10/05 07:34:31;;;;;;;9.97;2.57;;;;;;;13.71;100.00;102271.75;4962649;28;20805;-73
2023/10/05 07:36:57;;;;;;;10.13;2.60;;;;;;;13.70;100.00;102300.56;4978608;28;20465;-73
2023/10/05 07:39:23;;;;;;;7.30;2.50;;;;;;;13.81;100.00;102307.38;4961651;28;20178;-73
2023/10/05 07:41:49;;;;;;;12.97;2.37;;;;;;;13.67;100.00;102306.34;4965570;28;20560;-73
2023/10/05 07:44:17;;;;;;;15.80;3.50;;;;;;;13.77;100.00;102335.75;4964108;28;20933;-73
2023/10/05 07:46:43;;;;;;;9.03;2.23;;;;;;;14.18;100.00;102387.44;4959250;28;20530;-73
2023/10/05 07:49:09;;;;;;;12.00;2.70;;;;;;;13.81;100.00;102347.84;4961086;28;20530;-73
2023/10/05 07:51:35;;;;;;;11.30;2.50;;;;;;;13.86;100.00;102382.38;4961262;28;20752;-73
2023/10/05 07:54:00;;;;;;;11.03;3.40;;;;;;;14.09;100.00;102407.44;4965058;28;20792;-73
2023/10/05 07:56:25;;;;;;;10.87;3.43;;;;;;;14.17;100.00;102414.56;4965765;28;20181;-73
2023/10/05 07:58:51;;;;;;;10.80;2.67;;;;;;;14.39;100.00;102451.47;4961389;28;20222;-73
2023/10/05 08:01:18;;;;;;;8.90;2.77;;;;;;;13.93;100.00;102372.50;4963389;28;20198;-73
2023/10/05 08:03:44;;;;;;;9.23;3.40;;;;;;;14.22;100.00;102428.38;4956306;28;20202;-73
2023/10/05 08:06:14;;;;;;;10.00;2.43;;;;;;;14.10;100.00;102416.34;4963575;28;21004;-73
2023/10/05 08:08:43;;;;;;;11.13;2.57;;;;;;;14.56;100.00;102491.84;4962852;28;20434;-73
2023/10/05 08:11:12;;;;;;;7.80;2.57;;;;;;;14.47;100.00;102499.97;4963979;28;20433;-73
2023/10/05 08:13:37;;;;;;;9.77;2.33;;;;;;;14.44;100.00;102494.13;4969411;28;20453;-73
2023/10/05 08:16:03;;;;;;;9.60;2.37;;;;;;;14.44;100.00;102477.91;4966714;28;20441;-72
2023/10/05 08:18:29;;;;;;;16.90;4.40;;;;;;;14.59;100.00;102513.91;4967850;28;20673;-73
2023/10/05 08:20:54;;;;;;;8.20;2.30;;;;;;;14.12;100.00;102431.34;4969018;28;20448;-72
2023/10/05 08:23:20;;;;;;;7.10;1.67;;;;;;;14.77;100.00;102551.34;4969454;28;20688;-72
2023/10/05 08:25:46;;;;;;;6.80;1.80;;;;;;;14.76;100.00;102554.25;4967379;28;20194;-72
2023/10/05 08:28:12;;;;;;;5.07;1.83;;;;;;;14.02;100.00;102469.34;4980581;28;20186;-72
2023/10/05 08:30:45;;;;;;;8.00;2.37;;;;;;;14.58;100.00;102550.03;4967315;28;20456;-71
2023/10/05 08:33:15;;;;;;;6.37;1.60;;;;;;;14.13;100.00;102461.84;4984078;28;20676;-72
2023/10/05 08:35:41;;;;;;;5.43;1.60;;;;;;;14.56;100.00;102521.53;4967420;28;20898;-72
2023/10/05 08:38:15;;;;;;;6.77;2.07;;;;;;;14.79;100.00;102579.03;4969832;28;20548;-73
2023/10/05 08:40:42;;;;;;;5.50;1.90;;;;;;;14.20;100.00;102497.88;4969949;28;20876;-73
2023/10/05 08:43:09;;;;;;;8.50;1.70;;;;;;;14.66;100.00;102570.72;4968167;28;20453;-73
2023/10/05 08:45:37;;;;;;;9.40;2.27;;;;;;;14.84;100.00;102605.47;4968320;28;21049;-73
2023/10/05 08:48:08;;;;;;;8.00;2.07;;;;;;;14.27;100.00;102498.84;4969420;28;20437;-72
2023/10/05 08:50:35;;;;;;;7.87;2.03;;;;;;;14.70;100.00;102561.22;4969602;28;20449;-73
2023/10/05 08:53:01;;;;;;;8.00;2.70;;;;;;;15.04;100.00;102627.38;4968948;28;20811;-73
2023/10/05 08:55:30;;;;;;;9.97;2.10;;;;;;;14.37;100.00;102536.34;4968578;28;21051;-73
2023/10/05 08:57:55;;;;;;;12.33;1.97;;;;;;;14.81;100.00;102590.50;4968486;28;20470;-73
2023/10/05 09:00:38;;;;;;;9.00;1.90;;;;;;;14.94;100.00;102592.53;4967568;28;20992;-73
2023/10/05 09:03:17;;;;;;;7.37;1.83;;;;;;;15.13;100.00;102650.63;4969362;28;20292;-73
2023/10/05 09:06:15;;;;;;;7.57;1.40;;;;;;;14.55;100.00;102561.22;4961924;28;20595;-73
2023/10/05 09:08:44;;;;;;;7.77;2.00;;;;;;;14.54;100.00;102561.38;4965705;28;20441;-73
2023/10/05 09:11:09;;;;;;;8.73;2.60;;;;;;;15.08;100.00;102670.09;4978803;28;20434;-73
2023/10/05 09:13:45;;;;;;;8.00;1.70;;;;;;;15.01;100.00;102655.63;4966639;28;20467;-73
2023/10/05 09:16:15;;;;;;;8.87;2.13;;;;;;;15.13;100.00;102674.97;4966786;28;20285;-73
2023/10/05 09:18:49;;;;;;;6.90;1.77;;;;;;;14.54;100.00;102608.13;4967270;28;20539;-72
2023/10/05 09:21:19;;;;;;;9.20;2.07;;;;;;;14.52;100.00;102596.66;4965942;28;20461;-72
2023/10/05 09:23:45;;;;;;;6.53;1.90;;;;;;;14.88;100.00;102669.78;4967123;28;20449;-72
2023/10/05 09:26:34;;;;;;;6.73;2.00;;;;;;;15.05;100.00;102721.81;4979486;28;20461;-73
2023/10/05 09:29:21;;;;;;;6.13;1.73;;;;;;;14.43;100.00;102639.03;4963924;28;20452;-73
2023/10/05 09:31:58;;;;;;;8.40;2.00;;;;;;;15.01;100.00;102739.41;4979666;28;20469;-73
2023/10/05 09:34:43;;;;;;;7.07;2.20;;;;;;;15.18;100.00;102748.19;4964817;28;20515;-73
2023/10/05 09:37:10;;;;;;;7.33;1.50;;;;;;;14.91;100.00;102723.44;4965493;28;20476;-73
2023/10/05 09:39:44;;;;;;;4.80;1.50;;;;;;;14.93;100.00;102739.50;4968814;28;20437;-73
2023/10/05 09:42:25;;;;;;;7.67;1.40;;;;;;;15.07;100.00;102776.53;4966895;28;20846;-73
2023/10/05 09:44:57;;;;;;;5.10;1.00;;;;;;;14.40;100.00;102674.50;4966075;28;20966;-73
2023/10/05 09:47:32;;;;;;;6.63;1.67;;;;;;;14.56;100.00;102697.91;4968420;28;20421;-74
2023/10/05 09:50:15;;;;;;;4.60;1.20;;;;;;;14.62;100.00;102682.84;4963078;28;20532;-73
2023/10/05 09:52:46;;;;;;;4.93;1.37;;;;;;;15.20;100.00;102807.50;4964702;28;20445;-73
2023/10/05 09:55:17;;;;;;;6.50;1.13;;;;;;;14.33;100.00;102640.31;4966023;28;20987;-73
2023/10/05 09:57:51;;;;;;;4.40;1.40;;;;;;;15.18;100.00;102766.28;4966485;28;20477;-73
2023/10/05 10:00:47;;;;;;;6.77;1.87;;;;;;;15.24;100.00;102765.56;4965511;28;20438;-73
2023/10/05 10:03:15;;;;;;;5.47;1.47;;;;;;;15.26;100.00;102772.47;4965794;28;20976;-73
2023/10/05 10:06:08;;;;;;;7.27;1.50;;;;;;;14.72;100.00;102658.25;4966726;28;20445;-73
2023/10/05 10:08:42;;;;;;;4.20;1.13;;;;;;;14.90;100.00;102673.13;4967304;28;20882;-76
2023/10/05 10:11:18;;;;;;;4.57;1.33;;;;;;;14.92;100.00;102664.84;4969404;28;20500;-73
2023/10/05 10:14:06;;;;;;;7.90;1.70;;;;;;;14.96;100.00;102659.94;4965516;28;20495;-73
2023/10/05 10:16:33;;;;;;;8.67;1.43;;;;;;;15.13;100.00;102639.81;4965701;28;20524;-73
2023/10/05 10:19:04;;;;;;;5.47;1.47;;;;;;;15.47;100.00;102666.28;4965935;28;20480;-73
2023/10/05 10:21:34;;;;;;;9.43;1.87;;;;;;;15.49;100.00;102649.88;4965597;28;20543;-73
2023/10/05 10:24:04;;;;;;;4.87;1.20;;;;;;;15.97;100.00;102748.59;4968901;28;20442;-73
2023/10/05 10:26:40;;;;;;;5.30;1.60;;;;;;;15.34;100.00;102634.50;4967767;28;20528;-73
2023/10/05 10:29:11;;;;;;;6.40;1.33;;;;;;;15.71;100.00;102662.50;4966131;28;20648;-73
2023/10/05 10:31:47;;;;;;;6.30;1.00;;;;;;;15.63;100.00;102626.56;4963991;28;20429;-73
2023/10/05 10:34:19;;;;;;;8.67;1.60;;;;;;;16.46;100.00;102722.69;4963225;28;20444;-73
2023/10/05 10:36:52;;;;;;;3.87;1.20;;;;;;;16.19;100.00;102624.94;4980517;28;21022;-73
2023/10/05 10:39:24;;;;;;;5.60;1.43;;;;;;;16.63;100.00;102693.47;4965958;28;20443;-73
2023/10/05 10:42:09;;;;;;;6.00;1.30;;;;;;;16.31;100.00;102600.88;4963784;28;21269;-73
2023/10/05 10:47:17;;;;;;;10.23;1.73;;;;;;;15.99;100.00;102600.34;4967967;28;20454;-73
2023/10/05 10:50:14;;;;;;;5.60;1.50;;;;;;;15.89;100.00;102609.84;4965169;28;20442;-72
2023/10/05 10:52:40;;;;;;;5.97;1.47;;;;;;;15.71;100.00;102583.22;4965054;28;20904;-73
2023/10/05 10:55:11;;;;;;;7.43;1.63;;;;;;;16.18;100.00;102676.56;4969021;28;20505;-73
2023/10/05 10:57:39;;;;;;;6.40;1.20;;;;;;;15.71;100.00;102607.56;4964781;28;20281;-72
2023/10/05 11:00:44;;;;;;;5.27;1.40;;;;;;;15.92;100.00;102631.94;4966048;28;20932;-72
2023/10/05 11:03:09;;;;;;;5.83;1.40;;;;;;;15.56;100.00;102588.59;4967188;28;20574;-72
2023/10/05 11:05:43;;;;;;;8.07;1.50;;;;;;;16.03;100.00;102658.50;4965732;28;20474;-72
2023/10/05 11:08:11;;;;;;;4.63;1.23;;;;;;;15.81;100.00;102605.38;4961532;28;20433;-72
2023/10/05 11:10:40;;;;;;;4.33;1.10;;;;;;;15.43;100.00;102566.81;4965470;28;20441;-72
2023/10/05 11:13:30;;;;;;;9.53;1.17;;;;;;;15.67;100.00;102608.91;4978894;28;20532;-72
2023/10/05 11:15:58;;;;;;;5.20;1.17;;;;;;;15.54;100.00;102571.75;4963867;28;20481;-72
2023/10/05 11:18:39;;;;;;;6.17;1.23;;;;;;;16.01;100.00;102628.09;4964991;28;21131;-73
2023/10/05 11:21:13;;;;;;;6.90;1.40;;;;;;;16.33;100.00;102634.03;4965872;28;20909;-72
2023/10/05 11:23:47;;;;;;;3.57;1.10;;;;;;;16.46;100.00;102596.25;4962797;28;20466;-72
2023/10/05 11:26:26;;;;;;;6.80;1.10;;;;;;;15.82;100.00;102515.03;4961917;28;20453;-72
2023/10/05 11:28:53;;;;;;;6.83;1.40;;;;;;;16.19;100.00;102589.75;4965548;28;21252;-72
2023/10/05 11:31:23;;;;;;;5.77;1.37;;;;;;;15.64;100.00;102491.13;4963561;28;20450;-72
2023/10/05 11:33:49;;;;;;;3.20;0.90;;;;;;;16.46;100.00;102566.47;4964729;28;20466;-72
2023/10/05 11:36:17;;;;;;;5.23;1.10;;;;;;;16.70;100.00;102572.47;4963196;28;20810;-72
2023/10/05 11:38:48;;;;;;;4.40;1.20;;;;;;;16.28;100.00;102482.13;4963367;28;20488;-72
2023/10/05 11:41:16;;;;;;;3.90;1.13;;;;;;;17.07;100.00;102544.19;4963948;28;20848;-72
2023/10/05 11:43:44;;;;;;;5.73;1.33;;;;;;;17.01;100.00;102507.03;4964468;28;20788;-72
2023/10/05 11:46:24;;;;;;;6.37;1.30;;;;;;;17.93;100.00;102502.94;4961830;28;20428;-72
2023/10/05 11:48:56;;;;;;;5.50;1.30;;;;;;;17.87;100.00;102471.19;4963691;28;20511;-72
2023/10/05 11:51:41;;;;;;;8.83;1.33;;;;;;;17.32;100.00;102481.28;4964439;28;20525;-71
2023/10/05 11:54:11;;;;;;;6.60;1.47;;;;;;;17.11;100.00;102411.75;4963777;28;20441;-71
2023/10/05 11:56:40;;;;;;;11.10;1.47;;;;;;;18.22;100.00;102425.63;4964177;28;20539;-72
2023/10/05 11:59:07;;;;;;;4.77;1.10;;;;;;;19.11;100.00;102328.94;4963880;28;20501;-71
2023/10/05 12:01:33;;;;;;;5.40;1.00;;;;;;;18.25;100.00;102172.66;4962773;28;20435;-73
2023/10/05 12:03:58;;;;;;;5.43;1.00;;;;;;;18.74;100.00;102114.00;4964255;28;21660;-74